TAP1708 LPMA-LPPR
Flight info
| Callsign | TAP1708 |
|---|---|
| Flight time | 1h 34m |
| Altitude | 38000 |
| Route | DEGUN DCT VABEM DCT LAMDI DCT ASMOV |
| Aircraft | A319/M-SDE3FGHIJ1RWXYZ/LB1 |
Departure
| Time | 2026-05-03 22:59 |
|---|---|
| Airport | Cristiano Ronaldo International Airport (LPMA) |
Arrival
| Time | 2026-05-04 00:33 |
|---|---|
| Airport | Francisco de Sá Carneiro Airport (LPPR) |
| Time | Latitude | Longitude | Altitude | Speed | Heading |
|---|---|---|---|---|---|
| 2026-05-03 22:31 | 32.69481 | -16.77470 | 177 ft | 0 kts | 137° |
| 2026-05-03 22:49 | 32.69491 | -16.77481 | 176 ft | 4 kts | 136° |
| 2026-05-03 22:49 | 32.69511 | -16.77503 | 176 ft | 4 kts | 135° |
| 2026-05-03 22:49 | 32.69530 | -16.77525 | 176 ft | 4 kts | 145° |
| 2026-05-03 22:50 | 32.69550 | -16.77535 | 176 ft | 4 kts | 210° |
| 2026-05-03 22:50 | 32.69554 | -16.77533 | 176 ft | 0 kts | 226° |
| 2026-05-03 22:52 | 32.69553 | -16.77533 | 176 ft | 0 kts | 226° |
| 2026-05-03 22:52 | 32.69538 | -16.77552 | 176 ft | 6 kts | 226° |
| 2026-05-03 22:53 | 32.69497 | -16.77603 | 176 ft | 11 kts | 226° |
| 2026-05-03 22:53 | 32.69428 | -16.77688 | 176 ft | 17 kts | 226° |
| 2026-05-03 22:53 | 32.69339 | -16.77799 | 176 ft | 19 kts | 226° |
| 2026-05-03 22:53 | 32.69290 | -16.77888 | 176 ft | 0 kts | 261° |
| 2026-05-03 22:54 | 32.69289 | -16.77889 | 176 ft | 1 kts | 261° |
| 2026-05-03 22:54 | 32.69289 | -16.77918 | 177 ft | 6 kts | 268° |
| 2026-05-03 22:54 | 32.69287 | -16.77992 | 176 ft | 12 kts | 267° |
| 2026-05-03 22:54 | 32.69241 | -16.78088 | 176 ft | 16 kts | 224° |
| 2026-05-03 22:55 | 32.69148 | -16.78197 | 176 ft | 21 kts | 224° |
| 2026-05-03 22:55 | 32.69032 | -16.78332 | 177 ft | 24 kts | 225° |
| 2026-05-03 22:55 | 32.68901 | -16.78414 | 177 ft | 19 kts | 207° |
| 2026-05-03 22:55 | 32.68908 | -16.78473 | 177 ft | 4 kts | 23° |
| 2026-05-03 22:56 | 32.68913 | -16.78468 | 177 ft | 0 kts | 43° |
| 2026-05-03 22:58 | 32.68914 | -16.78467 | 177 ft | 0 kts | 43° |
| 2026-05-03 22:58 | 32.68928 | -16.78451 | 177 ft | 14 kts | 43° |
| 2026-05-03 22:58 | 32.69218 | -16.78111 | 177 ft | 99 kts | 44° |
| 2026-05-03 22:58 | 32.69869 | -16.77352 | 251 ft | 153 kts | 44° |
| 2026-05-03 22:59 | 32.70606 | -16.76421 | 895 ft | 156 kts | 53° |
| 2026-05-03 22:59 | 32.70975 | -16.75208 | 1541 ft | 163 kts | 84° |
| 2026-05-03 22:59 | 32.70741 | -16.73826 | 1954 ft | 186 kts | 111° |
| 2026-05-03 22:59 | 32.70252 | -16.72293 | 2345 ft | 211 kts | 110° |
| 2026-05-03 23:00 | 32.69711 | -16.70561 | 2870 ft | 236 kts | 110° |
| 2026-05-03 23:00 | 32.69118 | -16.68634 | 3500 ft | 259 kts | 110° |
| 2026-05-03 23:00 | 32.68490 | -16.66590 | 4446 ft | 267 kts | 110° |
| 2026-05-03 23:00 | 32.67848 | -16.64493 | 5421 ft | 274 kts | 110° |
| 2026-05-03 23:01 | 32.67280 | -16.62316 | 6376 ft | 280 kts | 99° |
| 2026-05-03 23:01 | 32.67381 | -16.59992 | 7327 ft | 286 kts | 73° |
| 2026-05-03 23:01 | 32.68317 | -16.57908 | 8262 ft | 290 kts | 47° |
| 2026-05-03 23:01 | 32.69893 | -16.56413 | 9218 ft | 293 kts | 32° |
| 2026-05-03 23:02 | 32.71600 | -16.55068 | 10170 ft | 297 kts | 32° |
| 2026-05-03 23:02 | 32.73374 | -16.53670 | 10710 ft | 317 kts | 32° |
| 2026-05-03 23:02 | 32.75252 | -16.52187 | 11157 ft | 337 kts | 32° |
| 2026-05-03 23:02 | 32.77233 | -16.50620 | 11925 ft | 346 kts | 32° |
| 2026-05-03 23:03 | 32.79274 | -16.48995 | 12784 ft | 351 kts | 32° |
| 2026-05-03 23:03 | 32.81302 | -16.47409 | 13599 ft | 355 kts | 31° |
| 2026-05-03 23:03 | 32.83389 | -16.45805 | 14394 ft | 360 kts | 31° |
| 2026-05-03 23:03 | 32.85514 | -16.44183 | 15164 ft | 365 kts | 31° |
| 2026-05-03 23:04 | 32.87662 | -16.42548 | 15918 ft | 369 kts | 31° |
| 2026-05-03 23:04 | 32.89846 | -16.40882 | 16662 ft | 374 kts | 31° |
| 2026-05-03 23:04 | 32.92047 | -16.39194 | 17382 ft | 378 kts | 31° |
| 2026-05-03 23:04 | 32.94246 | -16.37499 | 18070 ft | 382 kts | 31° |
| 2026-05-03 23:05 | 32.96492 | -16.35763 | 18748 ft | 387 kts | 31° |
| 2026-05-03 23:05 | 32.98760 | -16.34009 | 19415 ft | 391 kts | 31° |
| 2026-05-03 23:05 | 33.01051 | -16.32234 | 20068 ft | 395 kts | 31° |
| 2026-05-03 23:05 | 33.03377 | -16.30436 | 20700 ft | 399 kts | 31° |
| 2026-05-03 23:06 | 33.05721 | -16.28624 | 21320 ft | 404 kts | 31° |
| 2026-05-03 23:06 | 33.08089 | -16.26793 | 21930 ft | 408 kts | 31° |
| 2026-05-03 23:06 | 33.10483 | -16.24947 | 22525 ft | 412 kts | 31° |
| 2026-05-03 23:06 | 33.12902 | -16.23081 | 23110 ft | 416 kts | 31° |
| 2026-05-03 23:07 | 33.15309 | -16.21218 | 23662 ft | 420 kts | 31° |
| 2026-05-03 23:07 | 33.17770 | -16.19308 | 24209 ft | 424 kts | 31° |
| 2026-05-03 23:07 | 33.20260 | -16.17369 | 24740 ft | 428 kts | 31° |
| 2026-05-03 23:07 | 33.22774 | -16.15410 | 25248 ft | 431 kts | 31° |
| 2026-05-03 23:08 | 33.25272 | -16.13463 | 25737 ft | 435 kts | 31° |
| 2026-05-03 23:08 | 33.27821 | -16.11479 | 26216 ft | 438 kts | 31° |
| 2026-05-03 23:08 | 33.30387 | -16.09483 | 26685 ft | 442 kts | 31° |
| 2026-05-03 23:08 | 33.32977 | -16.07469 | 27141 ft | 445 kts | 30° |
| 2026-05-03 23:09 | 33.35584 | -16.05437 | 27596 ft | 448 kts | 30° |
| 2026-05-03 23:09 | 33.38205 | -16.03391 | 28035 ft | 452 kts | 30° |
| 2026-05-03 23:09 | 33.40850 | -16.01327 | 28465 ft | 455 kts | 30° |
| 2026-05-03 23:09 | 33.43515 | -15.99247 | 28881 ft | 458 kts | 30° |
| 2026-05-03 23:10 | 33.46194 | -15.97155 | 29279 ft | 462 kts | 30° |
| 2026-05-03 23:10 | 33.48891 | -15.95046 | 29662 ft | 465 kts | 30° |
| 2026-05-03 23:10 | 33.51606 | -15.92920 | 30042 ft | 468 kts | 30° |
| 2026-05-03 23:10 | 33.54302 | -15.90801 | 30403 ft | 471 kts | 30° |
| 2026-05-03 23:11 | 33.57083 | -15.88609 | 30765 ft | 474 kts | 31° |
| 2026-05-03 23:11 | 33.59846 | -15.86431 | 31116 ft | 477 kts | 30° |
| 2026-05-03 23:11 | 33.62626 | -15.84245 | 31468 ft | 479 kts | 30° |
| 2026-05-03 23:11 | 33.65387 | -15.82076 | 31793 ft | 482 kts | 30° |
| 2026-05-03 23:12 | 33.68193 | -15.79871 | 32194 ft | 482 kts | 30° |
| 2026-05-03 23:12 | 33.71005 | -15.77657 | 32659 ft | 481 kts | 30° |
| 2026-05-03 23:12 | 33.73812 | -15.75446 | 33110 ft | 481 kts | 30° |
| 2026-05-03 23:12 | 33.76605 | -15.73244 | 33548 ft | 480 kts | 30° |
| 2026-05-03 23:13 | 33.79396 | -15.71040 | 33980 ft | 480 kts | 30° |
| 2026-05-03 23:13 | 33.82181 | -15.68838 | 34407 ft | 479 kts | 30° |
| 2026-05-03 23:13 | 33.84964 | -15.66638 | 34839 ft | 478 kts | 30° |
| 2026-05-03 23:13 | 33.87741 | -15.64438 | 35283 ft | 478 kts | 30° |
| 2026-05-03 23:14 | 33.90518 | -15.62234 | 35694 ft | 477 kts | 31° |
| 2026-05-03 23:14 | 33.93285 | -15.60037 | 36090 ft | 476 kts | 31° |
| 2026-05-03 23:14 | 33.96052 | -15.57847 | 36463 ft | 476 kts | 30° |
| 2026-05-03 23:14 | 33.98822 | -15.55656 | 36805 ft | 476 kts | 31° |
| 2026-05-03 23:15 | 34.01584 | -15.53467 | 37161 ft | 475 kts | 31° |
| 2026-05-03 23:15 | 34.04300 | -15.51307 | 37546 ft | 473 kts | 31° |
| 2026-05-03 23:15 | 34.07036 | -15.49124 | 37937 ft | 471 kts | 31° |
| 2026-05-03 23:15 | 34.09768 | -15.46942 | 38082 ft | 469 kts | 31° |
| 2026-05-03 23:16 | 34.12483 | -15.44775 | 38109 ft | 467 kts | 31° |
| 2026-05-03 23:16 | 34.17902 | -15.40457 | 38110 ft | 466 kts | 31° |
| 2026-05-03 23:17 | 34.23317 | -15.36146 | 38109 ft | 466 kts | 31° |
| 2026-05-03 23:17 | 34.28724 | -15.31828 | 38110 ft | 466 kts | 31° |
| 2026-05-03 23:18 | 34.34130 | -15.27480 | 38110 ft | 466 kts | 31° |
| 2026-05-03 23:18 | 34.39490 | -15.23160 | 38112 ft | 466 kts | 31° |
| 2026-05-03 23:19 | 34.44909 | -15.18811 | 38113 ft | 466 kts | 31° |
| 2026-05-03 23:19 | 34.50291 | -15.14482 | 38116 ft | 466 kts | 31° |
| 2026-05-03 23:20 | 34.55690 | -15.10123 | 38120 ft | 466 kts | 31° |
| 2026-05-03 23:20 | 34.61088 | -15.05749 | 38122 ft | 466 kts | 31° |
| 2026-05-03 23:21 | 34.66458 | -15.01409 | 38121 ft | 466 kts | 31° |
| 2026-05-03 23:21 | 34.71866 | -14.97042 | 38117 ft | 466 kts | 31° |
| 2026-05-03 23:22 | 34.79921 | -14.90482 | 38121 ft | 466 kts | 31° |
| 2026-05-03 23:22 | 34.85319 | -14.86080 | 38123 ft | 466 kts | 31° |
| 2026-05-03 23:23 | 34.90714 | -14.81691 | 38123 ft | 466 kts | 31° |
| 2026-05-03 23:23 | 34.96069 | -14.77327 | 38116 ft | 466 kts | 31° |
| 2026-05-03 23:24 | 35.01460 | -14.72910 | 38110 ft | 466 kts | 31° |
| 2026-05-03 23:24 | 35.06821 | -14.68522 | 38111 ft | 466 kts | 31° |
| 2026-05-03 23:25 | 35.12214 | -14.64091 | 38113 ft | 466 kts | 31° |
| 2026-05-03 23:25 | 35.17601 | -14.59661 | 38112 ft | 466 kts | 31° |
| 2026-05-03 23:26 | 35.22955 | -14.55253 | 38108 ft | 466 kts | 31° |
| 2026-05-03 23:26 | 35.28340 | -14.50817 | 38106 ft | 466 kts | 31° |
| 2026-05-03 23:27 | 35.33693 | -14.46406 | 38109 ft | 466 kts | 31° |
| 2026-05-03 23:27 | 35.39088 | -14.41951 | 38108 ft | 467 kts | 31° |
| 2026-05-03 23:28 | 35.43560 | -14.38242 | 38109 ft | 467 kts | 31° |
| 2026-05-03 23:28 | 35.48947 | -14.33764 | 38111 ft | 467 kts | 31° |
| 2026-05-03 23:29 | 35.54326 | -14.29289 | 38113 ft | 467 kts | 31° |
| 2026-05-03 23:29 | 35.59686 | -14.24839 | 38111 ft | 467 kts | 31° |
| 2026-05-03 23:30 | 35.65064 | -14.20361 | 38112 ft | 467 kts | 31° |
| 2026-05-03 23:30 | 35.70462 | -14.15849 | 38115 ft | 468 kts | 31° |
| 2026-05-03 23:31 | 35.75838 | -14.11342 | 38117 ft | 468 kts | 31° |
| 2026-05-03 23:31 | 35.81222 | -14.06825 | 38117 ft | 468 kts | 31° |
| 2026-05-03 23:32 | 35.86563 | -14.02341 | 38118 ft | 468 kts | 31° |
| 2026-05-03 23:32 | 35.91948 | -13.97811 | 38119 ft | 468 kts | 31° |
| 2026-05-03 23:33 | 35.97333 | -13.93287 | 38118 ft | 468 kts | 31° |
| 2026-05-03 23:33 | 36.02721 | -13.88753 | 38117 ft | 468 kts | 31° |
| 2026-05-03 23:34 | 36.08067 | -13.84233 | 38118 ft | 468 kts | 31° |
| 2026-05-03 23:34 | 36.13455 | -13.79671 | 38118 ft | 468 kts | 31° |
| 2026-05-03 23:35 | 36.18831 | -13.75108 | 38115 ft | 468 kts | 31° |
| 2026-05-03 23:35 | 36.24174 | -13.70566 | 38115 ft | 468 kts | 31° |
| 2026-05-03 23:36 | 36.29530 | -13.66015 | 38116 ft | 468 kts | 31° |
| 2026-05-03 23:36 | 36.34908 | -13.61434 | 38115 ft | 468 kts | 31° |
| 2026-05-03 23:37 | 36.40240 | -13.56869 | 38117 ft | 468 kts | 31° |
| 2026-05-03 23:37 | 36.45606 | -13.52285 | 38117 ft | 468 kts | 31° |
| 2026-05-03 23:38 | 36.50972 | -13.47703 | 38119 ft | 468 kts | 31° |
| 2026-05-03 23:38 | 36.56334 | -13.43099 | 38120 ft | 468 kts | 31° |
| 2026-05-03 23:39 | 36.61698 | -13.38487 | 38118 ft | 468 kts | 31° |
| 2026-05-03 23:39 | 36.67063 | -13.33868 | 38116 ft | 468 kts | 31° |
| 2026-05-03 23:40 | 36.72398 | -13.29280 | 38116 ft | 468 kts | 31° |
| 2026-05-03 23:40 | 36.77773 | -13.24641 | 38114 ft | 468 kts | 32° |
| 2026-05-03 23:41 | 36.83103 | -13.20019 | 38110 ft | 468 kts | 32° |
| 2026-05-03 23:41 | 36.88465 | -13.15373 | 38109 ft | 467 kts | 32° |
| 2026-05-03 23:42 | 36.93779 | -13.10757 | 38109 ft | 467 kts | 32° |
| 2026-05-03 23:42 | 36.99129 | -13.06104 | 38109 ft | 468 kts | 32° |
| 2026-05-03 23:43 | 37.04459 | -13.01458 | 38109 ft | 468 kts | 32° |
| 2026-05-03 23:43 | 37.09782 | -12.96816 | 38110 ft | 468 kts | 32° |
| 2026-05-03 23:44 | 37.15133 | -12.92132 | 38109 ft | 468 kts | 32° |
| 2026-05-03 23:44 | 37.20474 | -12.87456 | 38109 ft | 468 kts | 32° |
| 2026-05-03 23:45 | 37.25779 | -12.82796 | 38107 ft | 468 kts | 32° |
| 2026-05-03 23:45 | 37.31129 | -12.78095 | 38111 ft | 468 kts | 32° |
| 2026-05-03 23:46 | 37.36462 | -12.73399 | 38112 ft | 468 kts | 32° |
| 2026-05-03 23:46 | 37.41761 | -12.68716 | 38108 ft | 468 kts | 32° |
| 2026-05-03 23:47 | 37.47110 | -12.63992 | 38105 ft | 468 kts | 32° |
| 2026-05-03 23:47 | 37.52416 | -12.59295 | 38101 ft | 468 kts | 32° |
| 2026-05-03 23:48 | 37.57739 | -12.54562 | 38104 ft | 468 kts | 32° |
| 2026-05-03 23:48 | 37.63060 | -12.49831 | 38101 ft | 468 kts | 32° |
| 2026-05-03 23:49 | 37.68357 | -12.45126 | 38100 ft | 468 kts | 32° |
| 2026-05-03 23:49 | 37.73689 | -12.40382 | 38093 ft | 468 kts | 32° |
| 2026-05-03 23:50 | 37.78110 | -12.36424 | 38097 ft | 468 kts | 32° |
| 2026-05-03 23:50 | 37.84323 | -12.30856 | 38096 ft | 468 kts | 32° |
| 2026-05-03 23:51 | 37.89618 | -12.26122 | 38091 ft | 468 kts | 32° |
| 2026-05-03 23:51 | 37.94946 | -12.21345 | 38092 ft | 469 kts | 32° |
| 2026-05-03 23:52 | 38.00250 | -12.16573 | 38094 ft | 469 kts | 32° |
| 2026-05-03 23:52 | 38.05572 | -12.11773 | 38094 ft | 469 kts | 32° |
| 2026-05-03 23:53 | 38.10868 | -12.06989 | 38095 ft | 469 kts | 32° |
| 2026-05-03 23:53 | 38.16193 | -12.02174 | 38091 ft | 469 kts | 33° |
| 2026-05-03 23:54 | 38.21474 | -11.97382 | 38089 ft | 469 kts | 33° |
| 2026-05-03 23:54 | 38.26804 | -11.92541 | 38096 ft | 469 kts | 33° |
| 2026-05-03 23:55 | 38.32083 | -11.87736 | 38092 ft | 469 kts | 33° |
| 2026-05-03 23:55 | 38.37395 | -11.82893 | 38092 ft | 469 kts | 33° |
| 2026-05-03 23:56 | 38.42689 | -11.78064 | 38093 ft | 468 kts | 33° |
| 2026-05-03 23:56 | 38.47991 | -11.73213 | 38091 ft | 468 kts | 33° |
| 2026-05-03 23:57 | 38.53253 | -11.68392 | 38087 ft | 468 kts | 33° |
| 2026-05-03 23:57 | 38.58553 | -11.63536 | 38087 ft | 467 kts | 33° |
| 2026-05-03 23:58 | 38.63821 | -11.58687 | 38087 ft | 467 kts | 33° |
| 2026-05-03 23:58 | 38.69112 | -11.53811 | 38084 ft | 467 kts | 33° |
| 2026-05-03 23:59 | 38.74360 | -11.48955 | 38084 ft | 467 kts | 33° |
| 2026-05-03 23:59 | 38.79609 | -11.44095 | 38087 ft | 467 kts | 33° |
| 2026-05-04 00:00 | 38.84888 | -11.39212 | 38084 ft | 467 kts | 33° |
| 2026-05-04 00:00 | 38.90157 | -11.34326 | 38082 ft | 466 kts | 33° |
| 2026-05-04 00:01 | 38.95403 | -11.29447 | 38089 ft | 466 kts | 33° |
| 2026-05-04 00:01 | 39.00633 | -11.24574 | 38088 ft | 466 kts | 34° |
| 2026-05-04 00:02 | 39.05869 | -11.19687 | 38083 ft | 466 kts | 34° |
| 2026-05-04 00:02 | 39.11129 | -11.14767 | 38082 ft | 466 kts | 34° |
| 2026-05-04 00:03 | 39.16343 | -11.09886 | 38079 ft | 466 kts | 34° |
| 2026-05-04 00:03 | 39.21588 | -11.04959 | 38078 ft | 466 kts | 34° |
| 2026-05-04 00:04 | 39.26808 | -11.00054 | 38078 ft | 466 kts | 34° |
| 2026-05-04 00:04 | 39.32051 | -10.95109 | 38078 ft | 466 kts | 34° |
| 2026-05-04 00:05 | 39.37286 | -10.90159 | 38076 ft | 465 kts | 34° |
| 2026-05-04 00:05 | 39.42494 | -10.85229 | 38073 ft | 465 kts | 34° |
| 2026-05-04 00:06 | 39.47707 | -10.80287 | 38075 ft | 466 kts | 34° |
| 2026-05-04 00:06 | 39.52955 | -10.75317 | 38083 ft | 466 kts | 34° |
| 2026-05-04 00:07 | 39.58150 | -10.70373 | 38079 ft | 466 kts | 34° |
| 2026-05-04 00:07 | 39.63385 | -10.65388 | 38079 ft | 466 kts | 34° |
| 2026-05-04 00:08 | 39.68598 | -10.60406 | 38080 ft | 466 kts | 34° |
| 2026-05-04 00:08 | 39.73808 | -10.55415 | 38080 ft | 466 kts | 34° |
| 2026-05-04 00:09 | 39.79012 | -10.50421 | 38080 ft | 466 kts | 34° |
| 2026-05-04 00:09 | 39.84231 | -10.45403 | 38079 ft | 466 kts | 34° |
| 2026-05-04 00:10 | 39.89458 | -10.40371 | 38077 ft | 466 kts | 34° |
| 2026-05-04 00:10 | 39.94643 | -10.35372 | 37939 ft | 467 kts | 34° |
| 2026-05-04 00:11 | 39.97263 | -10.32845 | 37686 ft | 465 kts | 34° |
| 2026-05-04 00:11 | 39.99869 | -10.30331 | 37437 ft | 465 kts | 35° |
| 2026-05-04 00:11 | 40.02472 | -10.27815 | 37184 ft | 465 kts | 35° |
| 2026-05-04 00:11 | 40.05032 | -10.25335 | 36942 ft | 464 kts | 35° |
| 2026-05-04 00:12 | 40.07629 | -10.22812 | 36694 ft | 463 kts | 35° |
| 2026-05-04 00:12 | 40.10215 | -10.20297 | 36411 ft | 463 kts | 35° |
| 2026-05-04 00:12 | 40.12820 | -10.17762 | 35478 ft | 469 kts | 35° |
| 2026-05-04 00:12 | 40.15455 | -10.15206 | 34548 ft | 474 kts | 35° |
| 2026-05-04 00:13 | 40.18122 | -10.12623 | 33618 ft | 479 kts | 35° |
| 2026-05-04 00:13 | 40.20748 | -10.10072 | 33054 ft | 474 kts | 35° |
| 2026-05-04 00:13 | 40.23385 | -10.07501 | 32406 ft | 470 kts | 35° |
| 2026-05-04 00:13 | 40.26004 | -10.04945 | 31767 ft | 467 kts | 35° |
| 2026-05-04 00:14 | 40.28597 | -10.02408 | 31141 ft | 463 kts | 35° |
| 2026-05-04 00:14 | 40.31168 | -9.99890 | 30530 ft | 460 kts | 35° |
| 2026-05-04 00:14 | 40.33724 | -9.97388 | 29914 ft | 456 kts | 35° |
| 2026-05-04 00:14 | 40.36257 | -9.94902 | 29308 ft | 452 kts | 35° |
| 2026-05-04 00:15 | 40.38741 | -9.92460 | 28717 ft | 449 kts | 35° |
| 2026-05-04 00:15 | 40.41238 | -9.90006 | 28120 ft | 445 kts | 35° |
| 2026-05-04 00:15 | 40.43714 | -9.87576 | 27542 ft | 441 kts | 35° |
| 2026-05-04 00:15 | 40.46158 | -9.85175 | 26980 ft | 436 kts | 35° |
| 2026-05-04 00:16 | 40.48579 | -9.82793 | 26432 ft | 432 kts | 36° |
| 2026-05-04 00:16 | 40.50978 | -9.80426 | 25897 ft | 427 kts | 35° |
| 2026-05-04 00:16 | 40.53312 | -9.78120 | 25390 ft | 423 kts | 36° |
| 2026-05-04 00:16 | 40.55653 | -9.75807 | 24885 ft | 419 kts | 36° |
| 2026-05-04 00:17 | 40.57987 | -9.73500 | 24381 ft | 416 kts | 36° |
| 2026-05-04 00:17 | 40.60289 | -9.71223 | 23872 ft | 413 kts | 36° |
| 2026-05-04 00:17 | 40.62583 | -9.68948 | 23361 ft | 410 kts | 36° |
| 2026-05-04 00:17 | 40.64089 | -9.67455 | 23027 ft | 409 kts | 36° |
| 2026-05-04 00:18 | 40.67105 | -9.64469 | 22332 ft | 407 kts | 36° |
| 2026-05-04 00:18 | 40.69369 | -9.62226 | 21796 ft | 406 kts | 36° |
| 2026-05-04 00:18 | 40.71621 | -9.59989 | 21271 ft | 404 kts | 36° |
| 2026-05-04 00:18 | 40.73860 | -9.57762 | 20736 ft | 402 kts | 36° |
| 2026-05-04 00:19 | 40.75346 | -9.56284 | 20382 ft | 401 kts | 36° |
| 2026-05-04 00:19 | 40.77568 | -9.54073 | 19846 ft | 399 kts | 36° |
| 2026-05-04 00:19 | 40.79777 | -9.51873 | 19349 ft | 396 kts | 36° |
| 2026-05-04 00:19 | 40.81952 | -9.49703 | 18797 ft | 389 kts | 36° |
| 2026-05-04 00:20 | 40.84085 | -9.47569 | 18282 ft | 381 kts | 36° |
| 2026-05-04 00:20 | 40.86178 | -9.45476 | 17789 ft | 376 kts | 36° |
| 2026-05-04 00:20 | 40.88260 | -9.43393 | 17285 ft | 373 kts | 36° |
| 2026-05-04 00:20 | 40.90328 | -9.41326 | 16808 ft | 371 kts | 36° |
| 2026-05-04 00:21 | 40.92377 | -9.39276 | 16326 ft | 368 kts | 36° |
| 2026-05-04 00:21 | 40.94304 | -9.37063 | 15854 ft | 366 kts | 47° |
| 2026-05-04 00:21 | 40.95746 | -9.34355 | 15392 ft | 363 kts | 62° |
| 2026-05-04 00:21 | 40.96631 | -9.31248 | 14938 ft | 359 kts | 77° |
| 2026-05-04 00:22 | 40.96904 | -9.27981 | 14477 ft | 355 kts | 91° |
| 2026-05-04 00:22 | 40.96881 | -9.24722 | 14020 ft | 352 kts | 91° |
| 2026-05-04 00:22 | 40.96862 | -9.21522 | 13568 ft | 350 kts | 91° |
| 2026-05-04 00:22 | 40.96844 | -9.18275 | 13106 ft | 347 kts | 91° |
| 2026-05-04 00:23 | 40.96825 | -9.15136 | 12649 ft | 344 kts | 91° |
| 2026-05-04 00:23 | 40.96807 | -9.11974 | 12192 ft | 341 kts | 91° |
| 2026-05-04 00:23 | 40.96787 | -9.08840 | 11719 ft | 338 kts | 91° |
| 2026-05-04 00:23 | 40.96761 | -9.05737 | 11267 ft | 335 kts | 91° |
| 2026-05-04 00:24 | 40.96735 | -9.02695 | 10807 ft | 332 kts | 91° |
| 2026-05-04 00:24 | 40.96709 | -8.99651 | 10346 ft | 328 kts | 91° |
| 2026-05-04 00:24 | 40.96681 | -8.96706 | 10147 ft | 316 kts | 91° |
| 2026-05-04 00:24 | 40.96653 | -8.93854 | 10021 ft | 303 kts | 91° |
| 2026-05-04 00:25 | 40.96627 | -8.91097 | 9727 ft | 297 kts | 91° |
| 2026-05-04 00:25 | 40.96603 | -8.88380 | 9365 ft | 293 kts | 90° |
| 2026-05-04 00:25 | 40.96579 | -8.85687 | 8973 ft | 292 kts | 90° |
| 2026-05-04 00:25 | 40.96552 | -8.83013 | 8553 ft | 289 kts | 90° |
| 2026-05-04 00:26 | 40.96524 | -8.80360 | 8163 ft | 287 kts | 90° |
| 2026-05-04 00:26 | 40.96496 | -8.77727 | 7765 ft | 285 kts | 90° |
| 2026-05-04 00:26 | 40.96471 | -8.75110 | 7373 ft | 284 kts | 89° |
| 2026-05-04 00:26 | 40.96697 | -8.72531 | 6967 ft | 281 kts | 78° |
| 2026-05-04 00:27 | 40.97086 | -8.70012 | 6553 ft | 278 kts | 78° |
| 2026-05-04 00:27 | 40.97463 | -8.67521 | 6147 ft | 274 kts | 78° |
| 2026-05-04 00:27 | 40.97834 | -8.65092 | 5750 ft | 271 kts | 76° |
| 2026-05-04 00:27 | 40.98686 | -8.62935 | 5358 ft | 264 kts | 43° |
| 2026-05-04 00:28 | 41.00274 | -8.61865 | 4967 ft | 257 kts | 6° |
| 2026-05-04 00:28 | 41.02035 | -8.62078 | 4557 ft | 254 kts | 347° |
| 2026-05-04 00:28 | 41.03753 | -8.62547 | 4165 ft | 250 kts | 347° |
| 2026-05-04 00:28 | 41.05449 | -8.63020 | 3797 ft | 247 kts | 347° |
| 2026-05-04 00:29 | 41.07128 | -8.63485 | 3435 ft | 244 kts | 348° |
| 2026-05-04 00:29 | 41.08775 | -8.63927 | 3109 ft | 238 kts | 348° |
| 2026-05-04 00:29 | 41.10350 | -8.64342 | 2796 ft | 223 kts | 348° |
| 2026-05-04 00:29 | 41.11832 | -8.64727 | 2513 ft | 211 kts | 348° |
| 2026-05-04 00:30 | 41.13232 | -8.65091 | 2246 ft | 200 kts | 348° |
| 2026-05-04 00:30 | 41.14539 | -8.65431 | 2013 ft | 188 kts | 348° |
| 2026-05-04 00:30 | 41.15794 | -8.65759 | 1749 ft | 175 kts | 349° |
| 2026-05-04 00:30 | 41.16909 | -8.66049 | 1533 ft | 154 kts | 348° |
| 2026-05-04 00:31 | 41.17897 | -8.66308 | 1339 ft | 137 kts | 348° |
| 2026-05-04 00:31 | 41.18805 | -8.66543 | 1162 ft | 130 kts | 349° |
| 2026-05-04 00:31 | 41.19678 | -8.66769 | 996 ft | 127 kts | 349° |
| 2026-05-04 00:31 | 41.20541 | -8.66993 | 833 ft | 126 kts | 349° |
| 2026-05-04 00:32 | 41.21396 | -8.67218 | 666 ft | 125 kts | 348° |
| 2026-05-04 00:32 | 41.22250 | -8.67444 | 505 ft | 125 kts | 348° |
| 2026-05-04 00:32 | 41.23103 | -8.67670 | 354 ft | 125 kts | 349° |
| 2026-05-04 00:32 | 41.23929 | -8.67895 | 254 ft | 111 kts | 349° |
| 2026-05-04 00:33 | 41.24527 | -8.68051 | 244 ft | 67 kts | 349° |
| 2026-05-04 00:33 | 41.25168 | -8.68153 | 220 ft | 36 kts | 16° |
| 2026-05-04 00:33 | 41.25277 | -8.68031 | 215 ft | 17 kts | 130° |
| 2026-05-04 00:34 | 41.25168 | -8.67989 | 221 ft | 17 kts | 169° |
| 2026-05-04 00:34 | 41.25048 | -8.67958 | 223 ft | 18 kts | 169° |
| 2026-05-04 00:34 | 41.24915 | -8.67919 | 228 ft | 21 kts | 166° |
| 2026-05-04 00:34 | 41.24777 | -8.67838 | 233 ft | 21 kts | 155° |
| 2026-05-04 00:35 | 41.24628 | -8.67791 | 238 ft | 23 kts | 168° |
| 2026-05-04 00:35 | 41.24461 | -8.67747 | 244 ft | 26 kts | 168° |
| 2026-05-04 00:35 | 41.24284 | -8.67673 | 244 ft | 28 kts | 129° |
| 2026-05-04 00:35 | 41.24163 | -8.67487 | 249 ft | 26 kts | 137° |
| 2026-05-04 00:36 | 41.23999 | -8.67421 | 253 ft | 24 kts | 194° |
| 2026-05-04 00:36 | 41.23857 | -8.67484 | 257 ft | 21 kts | 169° |
| 2026-05-04 00:36 | 41.23725 | -8.67407 | 258 ft | 22 kts | 121° |
| 2026-05-04 00:36 | 41.23680 | -8.67291 | 258 ft | 12 kts | 83° |
| 2026-05-04 00:37 | 41.23683 | -8.67259 | 258 ft | 0 kts | 83° |